Time;durP1;ratioP1;P1;durP2;ratioP2;P2;SDS_P1;SDS_P2;PMS_P1;PMS_P2;Temp;Humidity;BMP_temperature;BMP_pressure;BME280_temperature;BME280_humidity;BME280_pressure;Samples;Min_cycle;Max_cycle;Signal;HPM_P1;HPM_P2
2023/01/11 00:01:10;;;;;;;0.30;0.30;;;5.30;99.90;;;;;;5089262;28;20917;-72
2023/01/11 00:03:36;;;;;;;0.20;0.20;;;5.30;99.90;;;;;;5096273;28;20432;-72
2023/01/11 00:06:03;;;;;;;4.00;0.30;;;5.30;99.90;;;;;;5090317;28;20423;-73
2023/01/11 00:08:30;;;;;;;0.10;0.10;;;5.30;99.90;;;;;;5087916;28;20426;-72
2023/01/11 00:10:57;;;;;;;0.30;0.10;;;5.30;99.90;;;;;;5081973;28;20502;-73
2023/01/11 00:13:28;;;;;;;0.30;0.20;;;5.30;99.90;;;;;;5092999;28;20922;-73
2023/01/11 00:15:55;;;;;;;0.10;0.10;;;5.30;99.90;;;;;;5088741;28;20428;-73
2023/01/11 00:18:22;;;;;;;0.10;0.10;;;5.40;99.90;;;;;;5098643;28;20925;-73
2023/01/11 00:20:48;;;;;;;0.63;0.63;;;5.40;99.90;;;;;;5090514;28;20424;-72
2023/01/11 00:23:15;;;;;;;0.40;0.20;;;5.40;99.90;;;;;;5089385;28;20860;-73
2023/01/11 00:25:42;;;;;;;0.20;0.20;;;5.40;99.90;;;;;;5078225;28;20446;-72
2023/01/11 00:28:09;;;;;;;0.90;0.30;;;5.40;99.90;;;;;;5093243;28;20443;-72
2023/01/11 00:30:36;;;;;;;0.30;0.20;;;5.40;99.90;;;;;;5084311;28;20908;-73
2023/01/11 00:33:02;;;;;;;0.13;0.13;;;5.50;99.90;;;;;;5093245;28;20439;-72
2023/01/11 00:35:31;;;;;;;0.20;0.20;;;5.50;99.90;;;;;;5092808;28;20426;-72
2023/01/11 00:38:01;;;;;;;0.15;0.15;;;5.50;99.90;;;;;;5089223;28;20757;-72
2023/01/11 00:40:27;;;;;;;0.20;0.20;;;5.50;99.90;;;;;;5078531;28;20461;-73
2023/01/11 00:48:25;;;;;;;0.30;0.30;;;5.60;99.90;;;;;;5087026;28;20435;-73
2023/01/11 00:50:54;;;;;;;0.22;0.22;;;5.60;99.90;;;;;;5092034;28;20956;-72
2023/01/11 00:53:20;;;;;;;1.60;0.60;;;5.60;99.90;;;;;;5079850;28;20543;-73
2023/01/11 00:55:47;;;;;;;0.20;0.20;;;5.60;99.90;;;;;;5094441;28;20455;-73
2023/01/11 00:58:16;;;;;;;0.20;0.20;;;5.60;99.90;;;;;;5080411;28;20425;-72
2023/01/11 01:00:46;;;;;;;3.10;0.30;;;5.60;99.90;;;;;;5094872;28;20436;-74
2023/01/11 01:03:12;;;;;;;0.38;0.32;;;5.70;99.90;;;;;;5093331;28;20432;-73
2023/01/11 01:05:39;;;;;;;3.50;0.35;;;5.70;99.90;;;;;;5100546;28;20460;-72
2023/01/11 01:08:06;;;;;;;0.30;0.30;;;5.70;99.90;;;;;;5092787;28;20790;-72
2023/01/11 01:10:33;;;;;;;0.22;0.22;;;5.70;99.90;;;;;;5092154;28;20422;-72
2023/01/11 01:15:57;;;;;;;0.57;0.57;;;5.70;99.90;;;;;;5096253;28;20431;-73
2023/01/11 01:18:24;;;;;;;0.30;0.30;;;5.70;99.90;;;;;;5084912;28;20801;-72
2023/01/11 01:20:51;;;;;;;0.13;0.13;;;5.70;99.90;;;;;;5094384;28;20429;-72
2023/01/11 01:23:18;;;;;;;0.60;0.45;;;5.70;99.90;;;;;;5087053;28;20890;-72
2023/01/11 01:25:44;;;;;;;0.20;0.20;;;5.80;99.90;;;;;;5092400;28;20929;-72
2023/01/11 01:28:11;;;;;;;0.73;0.73;;;5.80;99.90;;;;;;5103894;28;20469;-72
2023/01/11 01:30:40;;;;;;;0.30;0.30;;;5.80;99.90;;;;;;5085125;28;20432;-72
2023/01/11 01:33:06;;;;;;;0.20;0.20;;;5.80;99.90;;;;;;5087414;28;21182;-72
2023/01/11 01:35:36;;;;;;;0.50;0.30;;;5.80;99.90;;;;;;5091857;28;20424;-73
2023/01/11 01:38:03;;;;;;;0.45;0.45;;;5.80;99.90;;;;;;5094761;28;20505;-72
2023/01/11 01:40:30;;;;;;;3.80;0.47;;;5.80;99.90;;;;;;5088527;28;20424;-72
2023/01/11 01:42:57;;;;;;;0.40;0.40;;;5.80;99.90;;;;;;5096041;28;20428;-72
2023/01/11 01:45:27;;;;;;;0.65;0.43;;;5.80;99.90;;;;;;5085707;28;20575;-72
2023/01/11 01:47:59;;;;;;;4.40;0.52;;;5.90;99.90;;;;;;5086368;28;20426;-72
2023/01/11 01:50:31;;;;;;;1.30;0.80;;;5.90;99.90;;;;;;5072617;28;20427;-72
2023/01/11 01:53:16;;;;;;;0.43;0.32;;;5.90;99.90;;;;;;5074935;28;20502;-73
2023/01/11 01:55:49;;;;;;;2.40;0.50;;;5.90;99.90;;;;;;5097628;28;21081;-73
2023/01/11 01:58:19;;;;;;;0.20;0.20;;;5.90;99.90;;;;;;5089780;28;20796;-72
2023/01/11 02:00:46;;;;;;;0.20;0.20;;;5.90;99.90;;;;;;5085768;28;20804;-72
2023/01/11 02:03:19;;;;;;;0.50;0.50;;;5.90;99.90;;;;;;5099022;28;20428;-72
2023/01/11 02:05:47;;;;;;;1.20;0.50;;;5.90;99.90;;;;;;5090638;28;20418;-72
2023/01/11 02:08:34;;;;;;;0.22;0.22;;;6.00;99.90;;;;;;5096206;28;20431;-72
2023/01/11 02:11:02;;;;;;;0.60;0.60;;;6.00;99.90;;;;;;5092870;28;20420;-72
2023/01/11 02:13:30;;;;;;;1.60;0.40;;;6.00;99.90;;;;;;5093013;28;20918;-73
2023/01/11 02:16:06;;;;;;;0.68;0.47;;;6.00;99.90;;;;;;5099619;28;20910;-73
2023/01/11 02:18:37;;;;;;;0.40;0.40;;;6.00;99.90;;;;;;5078299;28;20452;-72
2023/01/11 02:21:25;;;;;;;0.30;0.30;;;6.10;99.90;;;;;;5095859;28;20427;-72
2023/01/11 02:24:26;;;;;;;0.30;0.30;;;6.10;99.90;;;;;;5091446;28;20443;-72
2023/01/11 02:27:26;;;;;;;0.30;0.30;;;6.10;99.90;;;;;;5089079;28;20524;-71
2023/01/11 02:30:20;;;;;;;0.30;0.30;;;6.10;99.90;;;;;;5090911;28;20543;-71
2023/01/11 02:32:58;;;;;;;0.20;0.20;;;6.00;99.90;;;;;;5093979;28;20436;-72
2023/01/11 02:35:49;;;;;;;0.20;0.20;;;6.00;99.90;;;;;;5083044;28;20869;-72
2023/01/11 02:38:42;;;;;;;0.50;0.10;;;6.00;99.90;;;;;;5079286;28;20425;-72
2023/01/11 02:45:23;;;;;;;0.20;0.20;;;6.00;99.90;;;;;;5071732;28;20427;-72
2023/01/11 02:48:09;;;;;;;0.17;0.10;;;6.00;99.90;;;;;;5083429;28;20425;-72
2023/01/11 02:51:01;;;;;;;0.30;0.30;;;6.10;99.90;;;;;;5090053;28;20794;-72
2023/01/11 02:53:53;;;;;;;0.30;0.30;;;6.10;99.90;;;;;;5100588;28;20825;-72
2023/01/11 02:56:24;;;;;;;0.22;0.22;;;6.20;99.90;;;;;;5089473;28;20424;-72
2023/01/11 02:58:54;;;;;;;0.20;0.20;;;6.20;99.90;;;;;;5094289;28;20918;-72
2023/01/11 03:01:22;;;;;;;0.52;0.52;;;6.20;99.90;;;;;;5091266;28;20471;-73
2023/01/11 03:03:50;;;;;;;0.10;0.10;;;6.20;99.90;;;;;;5073383;28;20428;-72
2023/01/11 03:06:27;;;;;;;1.40;0.50;;;6.20;99.90;;;;;;5089498;28;20423;-72
2023/01/11 03:09:25;;;;;;;0.20;0.20;;;6.30;99.90;;;;;;5072967;28;20990;-72
2023/01/11 03:15:18;;;;;;;0.90;0.32;;;6.30;99.90;;;;;;5076864;28;20431;-72
2023/01/11 03:18:22;;;;;;;0.10;0.10;;;6.40;99.90;;;;;;5083700;28;20450;-72
2023/01/11 03:21:01;;;;;;;0.30;0.30;;;6.30;99.90;;;;;;5099625;28;21175;-72
2023/01/11 03:24:06;;;;;;;0.80;0.40;;;6.30;99.90;;;;;;5099547;28;20427;-72
2023/01/11 03:27:09;;;;;;;0.70;0.20;;;6.30;99.90;;;;;;5060697;28;20483;-74
2023/01/11 03:29:42;;;;;;;0.40;0.30;;;6.30;99.90;;;;;;5066498;28;20436;-73
2023/01/11 03:32:25;;;;;;;0.30;0.30;;;6.30;99.90;;;;;;5052708;28;20428;-73
2023/01/11 03:35:02;;;;;;;0.50;0.20;;;6.40;99.90;;;;;;5059952;28;20423;-73
2023/01/11 03:37:46;;;;;;;0.20;0.20;;;6.40;99.90;;;;;;5059886;28;20489;-72
2023/01/11 03:40:24;;;;;;;0.20;0.20;;;6.40;99.90;;;;;;5047889;28;21041;-73
2023/01/11 03:43:10;;;;;;;0.20;0.20;;;6.40;99.90;;;;;;5060907;28;20518;-73
2023/01/11 03:46:02;;;;;;;0.93;0.17;;;6.50;99.90;;;;;;5043772;28;20511;-73
2023/01/11 03:48:43;;;;;;;0.30;0.30;;;6.50;99.90;;;;;;5067083;28;20558;-73
2023/01/11 03:51:13;;;;;;;0.30;0.30;;;6.50;99.90;;;;;;5045522;28;20495;-73
2023/01/11 03:53:45;;;;;;;0.10;0.10;;;6.50;99.90;;;;;;5065027;28;20576;-73
2023/01/11 03:56:16;;;;;;;0.30;0.30;;;6.50;99.90;;;;;;5070362;28;20776;-73
2023/01/11 03:58:43;;;;;;;0.13;0.13;;;6.40;99.90;;;;;;5052565;28;20462;-73
2023/01/11 04:01:11;;;;;;;1.65;0.20;;;6.40;1.00;;;;;;5059108;28;20429;-73
2023/01/11 04:03:38;;;;;;;0.20;0.20;;;6.40;1.00;;;;;;5082587;28;20508;-73
2023/01/11 04:06:05;;;;;;;2.60;0.38;;;6.40;92.40;;;;;;5078127;28;20947;-73
2023/01/11 04:08:31;;;;;;;0.10;0.10;;;6.40;99.90;;;;;;5091455;28;20436;-80
2023/01/11 04:11:03;;;;;;;0.13;0.08;;;6.50;99.90;;;;;;5066780;28;20436;-73
2023/01/11 04:13:33;;;;;;;0.10;0.10;;;6.50;99.90;;;;;;5082371;28;20470;-73
2023/01/11 04:16:00;;;;;;;0.10;0.10;;;6.60;99.90;;;;;;5082827;28;20445;-73
2023/01/11 04:18:29;;;;;;;0.10;0.10;;;6.60;99.90;;;;;;5082296;28;20518;-74
2023/01/11 04:20:56;;;;;;;0.60;0.30;;;6.60;99.90;;;;;;5081986;28;20440;-73
2023/01/11 04:23:23;;;;;;;0.10;0.10;;;6.60;99.90;;;;;;5101460;28;20445;-73
2023/01/11 04:25:50;;;;;;;0.70;0.20;;;6.60;99.90;;;;;;5092080;28;20453;-74
2023/01/11 04:28:17;;;;;;;0.10;0.10;;;6.50;99.90;;;;;;5101382;28;20875;-73
2023/01/11 04:30:43;;;;;;;0.10;0.10;;;6.50;1.00;;;;;;5092508;28;20839;-73
2023/01/11 04:33:12;;;;;;;0.30;0.30;;;6.50;99.90;;;;;;5085188;28;21014;-73
2023/01/11 04:35:38;;;;;;;0.10;0.10;;;6.50;1.00;;;;;;5099892;28;20436;-73
2023/01/11 04:38:05;;;;;;;0.40;0.40;;;6.50;99.90;;;;;;5106391;28;20508;-73
2023/01/11 04:40:32;;;;;;;0.00;0.00;;;6.50;99.90;;;;;;5089695;28;20450;-73
2023/01/11 04:43:01;;;;;;;0.00;0.00;;;6.50;99.90;;;;;;5096988;28;20440;-73
2023/01/11 04:45:29;;;;;;;0.20;0.20;;;6.50;99.90;;;;;;5076746;28;20448;-73
2023/01/11 04:47:56;;;;;;;0.20;0.20;;;6.60;99.90;;;;;;5099461;28;20455;-73
2023/01/11 04:50:24;;;;;;;0.10;0.10;;;6.60;1.00;;;;;;5078094;28;20442;-73
2023/01/11 04:52:51;;;;;;;0.23;0.10;;;6.60;99.90;;;;;;5084348;28;20859;-73
2023/01/11 04:55:20;;;;;;;0.00;0.00;;;6.70;99.90;;;;;;5101681;28;20447;-73
2023/01/11 04:57:47;;;;;;;0.10;0.10;;;6.70;99.90;;;;;;5091664;28;20456;-72
2023/01/11 05:00:14;;;;;;;0.10;0.10;;;6.80;99.90;;;;;;5092153;28;20934;-72
2023/01/11 05:02:41;;;;;;;0.00;0.00;;;6.80;99.90;;;;;;5088960;28;20483;-72
2023/01/11 05:05:09;;;;;;;0.10;0.10;;;6.80;99.90;;;;;;5094530;28;20827;-72
2023/01/11 05:07:37;;;;;;;0.10;0.10;;;6.80;99.90;;;;;;5097130;28;20419;-72
2023/01/11 05:10:05;;;;;;;0.20;0.20;;;6.90;99.90;;;;;;5088776;28;21092;-72
2023/01/11 05:12:33;;;;;;;0.10;0.10;;;6.90;99.90;;;;;;5091513;28;20935;-72
2023/01/11 05:15:04;;;;;;;0.60;0.30;;;6.90;99.90;;;;;;5081617;28;20437;-72
2023/01/11 05:17:31;;;;;;;0.20;0.20;;;6.90;99.90;;;;;;5071105;28;20518;-72
2023/01/11 05:19:57;;;;;;;0.20;0.20;;;6.90;99.90;;;;;;5080183;28;20984;-72
2023/01/11 05:22:24;;;;;;;0.10;0.10;;;6.90;99.90;;;;;;5078859;28;20478;-72
2023/01/11 05:24:50;;;;;;;0.20;0.20;;;6.90;99.90;;;;;;5079308;28;20450;-72
2023/01/11 05:27:17;;;;;;;0.30;0.20;;;6.90;99.90;;;;;;5093707;28;20507;-72
2023/01/11 05:29:44;;;;;;;0.20;0.20;;;6.90;99.90;;;;;;5092035;28;20427;-72
2023/01/11 05:32:11;;;;;;;0.30;0.30;;;6.90;99.90;;;;;;5089934;28;21360;-72
2023/01/11 05:34:38;;;;;;;0.23;0.23;;;6.90;99.90;;;;;;5101196;28;20506;-72
2023/01/11 05:37:08;;;;;;;0.30;0.30;;;6.90;99.90;;;;;;5087500;28;21037;-72
2023/01/11 05:39:34;;;;;;;0.50;0.50;;;6.90;99.90;;;;;;5107327;28;20424;-72
2023/01/11 05:42:01;;;;;;;0.20;0.20;;;6.90;99.90;;;;;;5093002;28;20534;-72
2023/01/11 05:47:18;;;;;;;0.20;0.20;;;7.00;99.90;;;;;;5073166;28;20492;-72
2023/01/11 05:49:45;;;;;;;0.45;0.45;;;7.00;99.90;;;;;;5079882;28;20439;-72
2023/01/11 05:52:15;;;;;;;0.20;0.20;;;7.00;99.90;;;;;;5069804;28;20439;-73
2023/01/11 05:54:42;;;;;;;0.10;0.10;;;7.00;99.90;;;;;;5093365;28;20983;-73
2023/01/11 05:57:12;;;;;;;0.10;0.10;;;7.00;99.90;;;;;;5072380;28;20431;-72
2023/01/11 05:59:38;;;;;;;0.10;0.10;;;7.00;99.90;;;;;;5092850;28;20927;-73
2023/01/11 06:02:05;;;;;;;0.17;0.17;;;6.90;1.00;;;;;;5089372;28;20519;-73
2023/01/11 06:04:32;;;;;;;0.15;0.15;;;6.90;1.00;;;;;;5092197;28;20426;-72
2023/01/11 06:06:59;;;;;;;0.03;0.03;;;6.90;1.00;;;;;;5078243;28;20432;-74
2023/01/11 06:09:25;;;;;;;0.60;0.20;;;6.90;1.00;;;;;;5071763;28;20427;-73
2023/01/11 06:11:54;;;;;;;0.10;0.10;;;6.80;1.00;;;;;;5084491;28;20420;-73
2023/01/11 06:14:21;;;;;;;1.20;0.10;;;6.80;1.00;;;;;;5103828;28;20421;-72
2023/01/11 06:16:48;;;;;;;0.35;0.25;;;6.80;1.00;;;;;;5089431;28;20505;-71
2023/01/11 06:19:15;;;;;;;0.17;0.17;;;6.90;10.70;;;;;;5105006;28;20422;-72
2023/01/11 06:21:42;;;;;;;0.10;0.10;;;6.90;40.80;;;;;;5078554;28;20431;-71
2023/01/11 06:24:08;;;;;;;0.50;0.10;;;6.90;63.70;;;;;;5079676;28;20430;-71
2023/01/11 06:26:37;;;;;;;0.03;0.03;;;6.90;78.40;;;;;;5098721;28;20430;-72
2023/01/11 06:29:04;;;;;;;0.10;0.10;;;7.00;93.20;;;;;;5110258;28;20424;-71
2023/01/11 06:31:31;;;;;;;0.07;0.07;;;7.00;91.60;;;;;;5109814;28;20469;-71
2023/01/11 06:33:57;;;;;;;0.08;0.08;;;7.10;80.10;;;;;;5093920;28;20437;-72
2023/01/11 06:36:24;;;;;;;0.10;0.10;;;7.10;63.80;;;;;;5089916;28;20437;-72
2023/01/11 06:38:51;;;;;;;0.20;0.15;;;7.20;38.50;;;;;;5098347;28;20430;-72
2023/01/11 06:41:18;;;;;;;0.00;0.00;;;7.20;14.50;;;;;;5092197;28;20923;-72
2023/01/11 06:43:45;;;;;;;0.00;0.00;;;7.20;1.00;;;;;;5090641;28;20487;-72
2023/01/11 06:46:14;;;;;;;0.20;0.20;;;7.20;1.00;;;;;;5091265;28;20495;-71
2023/01/11 06:48:41;;;;;;;0.00;0.00;;;7.20;1.00;;;;;;5087202;28;20805;-72
2023/01/11 06:51:10;;;;;;;0.13;0.13;;;7.20;1.00;;;;;;5091989;28;20483;-71
2023/01/11 06:53:38;;;;;;;0.10;0.10;;;7.20;1.00;;;;;;5092384;28;20429;-72
2023/01/11 06:56:05;;;;;;;0.10;0.10;;;7.20;1.00;;;;;;5087758;28;20515;-72
2023/01/11 06:58:32;;;;;;;0.10;0.10;;;7.20;1.00;;;;;;5100783;28;20990;-72
2023/01/11 07:00:59;;;;;;;0.10;0.10;;;7.30;1.00;;;;;;5104802;28;20568;-72
2023/01/11 07:03:26;;;;;;;0.00;0.00;;;7.30;1.00;;;;;;5069989;28;20423;-73
2023/01/11 07:05:55;;;;;;;0.10;0.10;;;7.30;1.00;;;;;;5092903;28;20459;-73
2023/01/11 07:08:24;;;;;;;0.10;0.10;;;7.30;1.00;;;;;;5080293;28;21132;-73
2023/01/11 07:10:53;;;;;;;0.13;0.07;;;7.30;1.00;;;;;;5080994;28;20457;-72
2023/01/11 07:13:20;;;;;;;0.00;0.00;;;7.30;1.00;;;;;;5099838;28;20491;-72
2023/01/11 07:15:49;;;;;;;0.30;0.30;;;7.30;1.00;;;;;;5089681;28;20430;-73
2023/01/11 07:18:18;;;;;;;0.25;0.20;;;7.30;1.00;;;;;;5104739;28;20424;-73
2023/01/11 07:20:45;;;;;;;0.55;0.28;;;7.30;1.00;;;;;;5085499;28;20517;-72
2023/01/11 07:23:11;;;;;;;0.20;0.10;;;7.30;1.00;;;;;;5068719;28;20454;-73
2023/01/11 07:25:40;;;;;;;0.90;0.20;;;7.30;1.00;;;;;;5080119;28;20452;-73
2023/01/11 07:28:09;;;;;;;0.10;0.10;;;7.40;1.00;;;;;;5090643;28;20917;-72
2023/01/11 07:30:38;;;;;;;0.10;0.10;;;7.40;1.00;;;;;;5089260;28;20909;-73
2023/01/11 07:33:25;;;;;;;0.00;0.00;;;7.40;1.00;;;;;;5069623;28;20463;-73
2023/01/11 07:35:52;;;;;;;0.03;0.03;;;7.30;1.00;;;;;;5083474;28;20929;-72
2023/01/11 07:38:19;;;;;;;0.00;0.00;;;7.40;1.00;;;;;;5093378;28;20799;-72
2023/01/11 07:40:46;;;;;;;0.10;0.10;;;7.30;5.30;;;;;;5085600;28;20449;-72
2023/01/11 07:43:18;;;;;;;0.10;0.10;;;7.30;24.10;;;;;;5092866;28;20910;-71
2023/01/11 07:45:49;;;;;;;0.10;0.10;;;7.30;38.60;;;;;;5084578;28;20801;-71
2023/01/11 07:48:25;;;;;;;0.65;0.30;;;7.30;46.60;;;;;;5083200;28;21055;-72
2023/01/11 07:50:53;;;;;;;0.00;0.00;;;7.30;55.40;;;;;;5098860;28;20487;-72
2023/01/11 07:53:20;;;;;;;0.40;0.10;;;7.30;67.20;;;;;;5079575;28;20868;-72
2023/01/11 07:55:47;;;;;;;0.00;0.00;;;7.30;77.90;;;;;;5085502;28;20439;-72
2023/01/11 07:58:14;;;;;;;0.10;0.10;;;7.30;90.80;;;;;;5072891;28;20427;-71
2023/01/11 08:00:41;;;;;;;0.00;0.00;;;7.30;99.90;;;;;;5105550;28;20987;-72
2023/01/11 08:03:09;;;;;;;0.30;0.20;;;7.30;99.90;;;;;;5107634;28;21027;-72
2023/01/11 08:05:36;;;;;;;0.00;0.00;;;7.40;99.90;;;;;;5092660;28;20982;-72
2023/01/11 08:08:04;;;;;;;1.90;0.10;;;7.40;99.90;;;;;;5074242;28;20513;-72
2023/01/11 08:10:34;;;;;;;0.10;0.10;;;7.40;99.90;;;;;;5089713;28;20434;-72
2023/01/11 08:15:46;;;;;;;0.10;0.03;;;7.50;99.90;;;;;;5087916;28;21019;-72
2023/01/11 08:18:16;;;;;;;0.00;0.00;;;7.50;99.90;;;;;;5110047;28;20783;-71
2023/01/11 08:20:52;;;;;;;0.00;0.00;;;7.60;99.90;;;;;;5109537;28;20424;-71
2023/01/11 08:23:19;;;;;;;0.10;0.10;;;7.60;99.90;;;;;;5108563;28;20430;-72
2023/01/11 08:25:46;;;;;;;0.10;0.10;;;7.60;99.90;;;;;;5087056;28;20421;-72
2023/01/11 08:28:13;;;;;;;0.20;0.20;;;7.60;99.90;;;;;;5090029;28;20425;-72
2023/01/11 08:30:39;;;;;;;0.10;0.10;;;7.60;99.90;;;;;;5095781;28;20910;-72
2023/01/11 08:33:06;;;;;;;0.10;0.10;;;7.60;99.90;;;;;;5069104;28;20439;-72
2023/01/11 08:35:37;;;;;;;0.00;0.00;;;7.70;99.90;;;;;;5085322;28;21042;-71
2023/01/11 08:38:07;;;;;;;0.00;0.00;;;7.70;99.90;;;;;;5086374;28;20434;-72
2023/01/11 08:40:34;;;;;;;0.22;0.22;;;7.60;99.90;;;;;;5094077;28;20883;-72
2023/01/11 08:43:01;;;;;;;0.00;0.00;;;7.60;99.90;;;;;;5068837;28;20489;-72
2023/01/11 08:45:28;;;;;;;0.00;0.00;;;7.60;99.90;;;;;;5078883;28;20422;-72
2023/01/11 08:47:55;;;;;;;0.10;0.10;;;7.60;99.90;;;;;;5089270;28;20422;-72
2023/01/11 08:50:27;;;;;;;0.03;0.03;;;7.70;99.90;;;;;;5089917;28;20458;-72
2023/01/11 08:52:54;;;;;;;0.00;0.00;;;7.70;99.90;;;;;;5084490;28;20552;-71
2023/01/11 08:55:21;;;;;;;0.00;0.00;;;7.60;99.90;;;;;;5069201;28;20488;-72
2023/01/11 08:57:47;;;;;;;0.30;0.20;;;7.60;99.90;;;;;;5080915;28;20425;-72
2023/01/11 09:00:17;;;;;;;0.22;0.08;;;7.60;99.90;;;;;;5086353;28;20436;-71
2023/01/11 09:02:46;;;;;;;0.10;0.10;;;7.70;99.90;;;;;;5087873;28;20448;-72
2023/01/11 09:05:13;;;;;;;0.00;0.00;;;7.70;99.90;;;;;;5068310;28;20837;-71
2023/01/11 09:07:43;;;;;;;0.10;0.10;;;7.70;99.90;;;;;;5082064;28;20421;-72
2023/01/11 09:10:10;;;;;;;0.10;0.10;;;7.70;99.90;;;;;;5075677;28;20435;-71
2023/01/11 09:12:37;;;;;;;0.20;0.20;;;7.70;99.90;;;;;;5070285;28;20431;-70
2023/01/11 09:15:04;;;;;;;0.10;0.10;;;7.70;99.90;;;;;;5092839;28;20803;-71
2023/01/11 09:17:37;;;;;;;0.10;0.10;;;7.70;99.90;;;;;;5092995;28;20426;-71
2023/01/11 09:20:04;;;;;;;0.10;0.10;;;7.70;99.90;;;;;;5092817;28;20441;-71
2023/01/11 09:22:31;;;;;;;0.20;0.10;;;7.70;99.90;;;;;;5092828;28;20425;-71
2023/01/11 09:24:58;;;;;;;0.43;0.28;;;7.70;99.90;;;;;;5092524;28;20429;-72
2023/01/11 09:27:25;;;;;;;0.20;0.20;;;7.70;99.90;;;;;;5088764;28;20427;-71
2023/01/11 09:29:52;;;;;;;0.20;0.20;;;7.70;99.90;;;;;;5076184;28;20419;-70
2023/01/11 09:32:19;;;;;;;0.10;0.10;;;7.70;99.90;;;;;;5078239;28;20508;-71
2023/01/11 09:34:56;;;;;;;0.20;0.20;;;7.70;99.90;;;;;;5089741;28;20433;-71
2023/01/11 09:37:25;;;;;;;3.90;0.30;;;7.70;99.90;;;;;;5092535;28;20438;-72
2023/01/11 09:39:52;;;;;;;0.15;0.15;;;7.70;99.90;;;;;;5076005;28;20455;-71
2023/01/11 09:42:39;;;;;;;0.30;0.15;;;7.70;99.90;;;;;;5079552;28;20434;-71
2023/01/11 09:45:14;;;;;;;0.10;0.10;;;7.70;99.90;;;;;;5082914;28;20485;-71
2023/01/11 09:47:47;;;;;;;0.10;0.10;;;7.70;99.90;;;;;;5071423;28;20423;-71
2023/01/11 09:50:18;;;;;;;0.40;0.20;;;7.70;99.90;;;;;;5088505;28;20930;-71
2023/01/11 09:52:51;;;;;;;0.10;0.10;;;7.80;99.90;;;;;;5092199;28;20432;-71
2023/01/11 09:55:29;;;;;;;0.00;0.00;;;7.80;99.90;;;;;;5104454;28;21100;-70
2023/01/11 09:58:06;;;;;;;0.20;0.20;;;7.80;99.90;;;;;;5074931;28;20468;-71
2023/01/11 10:00:47;;;;;;;0.10;0.10;;;7.90;99.90;;;;;;5082751;28;20436;-71
2023/01/11 10:03:30;;;;;;;0.00;0.00;;;7.90;99.90;;;;;;5091930;28;20525;-71
2023/01/11 10:06:13;;;;;;;0.08;0.08;;;7.90;99.90;;;;;;5081005;28;20427;-71
2023/01/11 10:08:42;;;;;;;0.28;0.28;;;7.90;99.90;;;;;;5071833;28;20427;-71
2023/01/11 10:11:57;;;;;;;0.10;0.10;;;8.00;99.90;;;;;;5071666;28;20489;-71
2023/01/11 10:15:07;;;;;;;0.08;0.08;;;8.00;99.90;;;;;;5095167;28;22210;-71
2023/01/11 10:18:26;;;;;;;0.10;0.10;;;8.00;99.90;;;;;;5094243;28;20416;-71
2023/01/11 10:21:22;;;;;;;0.20;0.20;;;8.00;99.90;;;;;;5075191;28;20420;-71
2023/01/11 10:24:00;;;;;;;0.00;0.00;;;8.10;99.90;;;;;;5090030;28;20947;-71
2023/01/11 10:26:34;;;;;;;0.07;0.07;;;8.10;99.90;;;;;;5090387;28;20431;-71
2023/01/11 10:34:44;;;;;;;0.10;0.10;;;8.10;99.90;;;;;;5077283;28;20506;-71
2023/01/11 10:43:20;;;;;;;0.30;0.17;;;8.20;99.90;;;;;;5070143;28;20467;-72
2023/01/11 10:45:55;;;;;;;0.00;0.00;;;8.30;99.90;;;;;;5080594;28;20531;-73
2023/01/11 10:48:28;;;;;;;0.00;0.00;;;8.30;99.90;;;;;;5110556;28;20432;-72
2023/01/11 10:51:28;;;;;;;0.20;0.20;;;8.30;99.90;;;;;;5105107;28;20420;-72
2023/01/11 10:54:21;;;;;;;0.13;0.13;;;8.30;99.90;;;;;;5099238;28;20452;-71
2023/01/11 10:57:12;;;;;;;0.90;0.40;;;8.30;99.90;;;;;;5106685;28;20424;-71
2023/01/11 10:59:55;;;;;;;0.17;0.17;;;8.40;99.90;;;;;;5100182;28;20490;-71
2023/01/11 11:02:39;;;;;;;0.00;0.00;;;8.30;99.90;;;;;;5108458;28;20431;-71
2023/01/11 11:05:25;;;;;;;0.10;0.10;;;8.40;99.90;;;;;;5070006;28;20502;-71
2023/01/11 11:07:57;;;;;;;0.10;0.10;;;8.30;99.90;;;;;;5070326;28;20427;-71
2023/01/11 11:11:11;;;;;;;0.20;0.20;;;8.40;99.90;;;;;;5070967;28;20431;-76
2023/01/11 11:13:57;;;;;;;0.10;0.10;;;8.50;99.90;;;;;;5076817;28;20506;-72
2023/01/11 11:16:38;;;;;;;0.00;0.00;;;8.70;99.90;;;;;;5095118;28;20812;-71
2023/01/11 11:19:11;;;;;;;0.10;0.10;;;8.90;99.90;;;;;;5089692;28;20465;-71
2023/01/11 11:21:40;;;;;;;0.17;0.17;;;9.10;99.90;;;;;;5070898;28;20435;-71
2023/01/11 11:24:34;;;;;;;0.10;0.10;;;9.30;99.90;;;;;;5095011;28;20436;-71
2023/01/11 11:27:37;;;;;;;0.00;0.00;;;9.40;99.90;;;;;;5058889;28;20429;-71
2023/01/11 11:30:10;;;;;;;0.10;0.10;;;9.60;99.90;;;;;;5080898;28;20426;-71
2023/01/11 11:32:41;;;;;;;0.10;0.10;;;9.60;99.90;;;;;;5093820;28;20509;-72
2023/01/11 11:35:29;;;;;;;0.10;0.10;;;9.60;99.90;;;;;;5077294;28;20435;-73
2023/01/11 11:37:56;;;;;;;0.13;0.13;;;9.60;99.90;;;;;;5080442;28;20520;-73
2023/01/11 11:40:33;;;;;;;0.10;0.10;;;9.60;99.90;;;;;;5076074;28;20907;-72
2023/01/11 11:43:21;;;;;;;0.20;0.20;;;9.60;99.90;;;;;;5086856;28;20473;-72
2023/01/11 11:46:04;;;;;;;0.20;0.20;;;9.70;78.50;;;;;;5089413;28;20483;-72
2023/01/11 11:48:34;;;;;;;0.13;0.13;;;9.80;24.40;;;;;;5106725;28;20424;-71
2023/01/11 11:51:04;;;;;;;0.10;0.10;;;9.80;99.90;;;;;;5070823;28;20433;-72
2023/01/11 11:53:45;;;;;;;0.30;0.10;;;9.90;1.00;;;;;;5082633;28;20426;-72
2023/01/11 11:56:22;;;;;;;0.30;0.30;;;10.00;99.90;;;;;;5110151;28;20451;-72
2023/01/11 11:58:49;;;;;;;0.10;0.10;;;10.00;99.90;;;;;;5108944;28;20446;-71
2023/01/11 12:01:22;;;;;;;0.00;0.00;;;10.10;99.90;;;;;;5110358;28;20428;-71
2023/01/11 12:03:51;;;;;;;0.30;0.20;;;10.10;99.90;;;;;;5075781;28;20789;-70
2023/01/11 12:06:27;;;;;;;0.15;0.15;;;10.10;99.90;;;;;;5087272;28;20436;-70
2023/01/11 12:08:56;;;;;;;0.08;0.08;;;10.10;99.90;;;;;;5096362;28;20420;-70
2023/01/11 12:11:36;;;;;;;0.10;0.10;;;10.10;99.90;;;;;;5087866;28;20431;-70
2023/01/11 12:14:20;;;;;;;0.28;0.28;;;10.10;99.90;;;;;;5069033;28;20503;-70
2023/01/11 12:16:49;;;;;;;0.10;0.10;;;10.20;99.90;;;;;;5092600;28;20433;-70
2023/01/11 12:19:38;;;;;;;0.10;0.10;;;10.10;99.90;;;;;;5104739;28;20432;-70
2023/01/11 12:22:19;;;;;;;0.20;0.20;;;10.00;99.90;;;;;;5109803;28;20467;-72
2023/01/11 12:25:20;;;;;;;0.00;0.00;;;10.00;99.90;;;;;;5097632;28;20522;-70
2023/01/11 12:28:27;;;;;;;0.30;0.30;;;9.80;99.90;;;;;;5104504;28;20814;-70
2023/01/11 12:31:31;;;;;;;0.10;0.10;;;9.80;99.90;;;;;;5067023;28;20434;-71
2023/01/11 12:34:22;;;;;;;0.05;0.05;;;9.80;99.90;;;;;;5069295;28;20905;-71
2023/01/11 12:37:26;;;;;;;0.10;0.10;;;9.80;99.90;;;;;;5069176;28;20432;-70
2023/01/11 12:40:17;;;;;;;0.20;0.20;;;9.80;99.90;;;;;;5075650;28;20504;-70
2023/01/11 12:43:06;;;;;;;0.20;0.20;;;9.80;99.90;;;;;;5088745;28;20426;-71
2023/01/11 12:46:13;;;;;;;0.20;0.20;;;9.80;99.90;;;;;;5086286;28;20504;-70
2023/01/11 12:48:49;;;;;;;0.20;0.10;;;9.80;99.90;;;;;;5097023;28;20438;-71
2023/01/11 12:51:28;;;;;;;0.10;0.10;;;9.90;99.90;;;;;;5105564;28;20427;-71
2023/01/11 12:54:16;;;;;;;0.10;0.10;;;9.80;99.90;;;;;;5103806;28;20437;-71
2023/01/11 12:56:58;;;;;;;0.15;0.15;;;9.80;99.90;;;;;;5093162;28;20429;-72
2023/01/11 12:59:44;;;;;;;0.10;0.10;;;9.70;99.90;;;;;;5092131;28;20426;-71
2023/01/11 13:02:40;;;;;;;0.20;0.20;;;9.70;99.90;;;;;;5096507;28;20423;-71
2023/01/11 13:05:50;;;;;;;0.10;0.10;;;9.50;99.90;;;;;;5110156;28;20899;-70
2023/01/11 13:08:23;;;;;;;0.10;0.10;;;9.40;99.90;;;;;;5096667;28;21166;-70
2023/01/11 13:11:33;;;;;;;0.60;0.10;;;9.20;99.90;;;;;;5100878;28;20424;-70
2023/01/11 13:14:26;;;;;;;0.10;0.10;;;9.10;99.90;;;;;;5070688;28;20939;-70
2023/01/11 13:17:23;;;;;;;0.00;0.00;;;9.10;1.00;;;;;;5090925;28;20414;-69
2023/01/11 13:20:16;;;;;;;0.10;0.10;;;9.20;99.90;;;;;;5091017;28;20974;-69
2023/01/11 13:22:48;;;;;;;0.10;0.10;;;9.20;99.90;;;;;;5083825;28;20431;-69
2023/01/11 13:25:38;;;;;;;0.28;0.28;;;9.20;99.90;;;;;;5108262;28;20962;-70
2023/01/11 13:28:32;;;;;;;0.10;0.10;;;9.20;99.90;;;;;;5084564;28;20417;-69
2023/01/11 13:31:02;;;;;;;0.10;0.10;;;9.20;99.90;;;;;;5090915;28;20435;-70
2023/01/11 13:33:31;;;;;;;0.10;0.10;;;9.30;99.90;;;;;;5109114;28;20936;-69
2023/01/11 13:36:14;;;;;;;0.00;0.00;;;9.30;99.90;;;;;;5096700;28;20418;-69
2023/01/11 13:38:53;;;;;;;0.10;0.10;;;9.30;99.90;;;;;;5092742;28;20434;-70
2023/01/11 13:41:33;;;;;;;0.10;0.10;;;9.30;99.90;;;;;;5108700;28;20420;-69
2023/01/11 13:44:08;;;;;;;0.10;0.10;;;9.30;99.90;;;;;;5081192;28;20431;-71
2023/01/11 13:46:40;;;;;;;0.17;0.17;;;9.20;99.90;;;;;;5089615;28;20467;-69
2023/01/11 13:49:17;;;;;;;0.30;0.20;;;9.20;99.90;;;;;;5098001;28;20445;-69
2023/01/11 13:52:02;;;;;;;0.20;0.20;;;9.10;99.90;;;;;;5095753;28;20432;-70
2023/01/11 13:54:43;;;;;;;0.20;0.15;;;9.10;99.90;;;;;;5102597;28;20962;-69
2023/01/11 13:57:15;;;;;;;0.20;0.20;;;9.00;99.90;;;;;;5092718;28;21076;-69
2023/01/11 13:59:47;;;;;;;0.10;0.10;;;9.00;99.90;;;;;;5085032;28;20423;-69
2023/01/11 14:02:34;;;;;;;0.10;0.10;;;9.10;99.90;;;;;;5078034;28;20470;-70
2023/01/11 14:05:13;;;;;;;0.20;0.20;;;9.10;99.90;;;;;;5088242;28;20436;-70
2023/01/11 14:07:59;;;;;;;0.50;0.20;;;9.10;99.90;;;;;;5094897;28;20427;-69